createdAt,value
2022-12-26T00:01:44.857Z,15.07
2022-12-26T00:04:50.597Z,12.77
2022-12-26T00:07:02.272Z,14.83
2022-12-26T00:09:29.139Z,15.60
2022-12-26T00:11:56.255Z,16.13
2022-12-26T00:14:24.146Z,15.17
2022-12-26T00:16:51.087Z,14.63
2022-12-26T00:19:17.973Z,12.97
2022-12-26T00:21:44.760Z,13.00
2022-12-26T00:24:12.353Z,11.77
2022-12-26T00:26:39.460Z,10.13
2022-12-26T00:29:06.607Z,9.83
2022-12-26T00:31:35.486Z,10.27
2022-12-26T00:34:03.766Z,10.17
2022-12-26T00:36:34.036Z,9.80
2022-12-26T00:39:03.077Z,9.23
2022-12-26T00:41:30.571Z,8.80
2022-12-26T00:43:58.301Z,8.60
2022-12-26T00:46:26.872Z,9.27
2022-12-26T00:48:54.564Z,9.27
2022-12-26T00:51:22.018Z,8.93
2022-12-26T00:53:49.061Z,8.30
2022-12-26T00:56:16.509Z,8.33
2022-12-26T00:58:43.826Z,9.30
2022-12-26T01:01:15.270Z,8.97
2022-12-26T01:03:43.891Z,9.17
2022-12-26T01:06:11.328Z,9.30
2022-12-26T01:08:38.101Z,8.57
2022-12-26T01:11:11.676Z,10.13
2022-12-26T01:13:39.254Z,10.30
2022-12-26T01:16:07.425Z,10.90
2022-12-26T01:18:35.323Z,10.80
2022-12-26T01:21:05.453Z,10.60
2022-12-26T01:23:32.260Z,10.53
2022-12-26T01:26:16.873Z,11.37
2022-12-26T01:28:45.633Z,11.53
2022-12-26T01:31:12.466Z,11.03
2022-12-26T01:33:39.285Z,10.47
2022-12-26T01:36:06.449Z,10.93
2022-12-26T01:38:33.345Z,11.40
2022-12-26T01:41:20.319Z,10.67
2022-12-26T01:43:55.528Z,11.03
2022-12-26T01:46:45.556Z,11.50
2022-12-26T01:49:28.014Z,10.77
2022-12-26T01:51:59.974Z,11.23
2022-12-26T01:54:41.456Z,11.07
2022-12-26T01:57:24.616Z,10.63
2022-12-26T01:59:52.878Z,11.03
2022-12-26T02:02:22.277Z,10.87
2022-12-26T02:05:11.279Z,10.63
2022-12-26T02:07:46.222Z,10.63
2022-12-26T02:10:23.456Z,10.47
2022-12-26T02:12:51.232Z,9.67
2022-12-26T02:15:19.293Z,8.67
2022-12-26T02:17:46.917Z,8.20
2022-12-26T02:20:19.222Z,8.07
2022-12-26T02:23:07.550Z,8.10
2022-12-26T02:26:22.569Z,8.27
2022-12-26T02:29:10.619Z,8.23
2022-12-26T02:31:55.749Z,7.43
2022-12-26T02:34:31.739Z,8.40
2022-12-26T02:37:26.407Z,8.17
2022-12-26T02:40:38.325Z,7.70
2022-12-26T02:43:40.608Z,7.90
2022-12-26T02:46:45.128Z,8.10
2022-12-26T02:49:18.517Z,8.57
2022-12-26T02:52:36.263Z,8.70
2022-12-26T02:55:45.313Z,9.20
2022-12-26T02:58:40.623Z,9.30
2022-12-26T03:01:36.791Z,7.87
2022-12-26T03:04:28.063Z,8.57
2022-12-26T03:07:17.068Z,8.27
2022-12-26T03:10:05.129Z,8.07
2022-12-26T03:13:12.907Z,8.03
2022-12-26T03:16:13.738Z,7.57
2022-12-26T03:18:59.096Z,8.40
2022-12-26T03:21:33.083Z,9.43
2022-12-26T03:24:00.233Z,8.70
2022-12-26T03:26:42.670Z,8.33
2022-12-26T03:29:34.551Z,8.40
2022-12-26T03:32:03.942Z,7.90
2022-12-26T03:34:31.030Z,8.50
2022-12-26T03:37:19.770Z,8.20
2022-12-26T03:40:33.115Z,8.50
2022-12-26T03:43:37.439Z,8.17
2022-12-26T03:46:22.757Z,7.97
2022-12-26T03:49:29.858Z,8.53
2022-12-26T03:52:24.014Z,8.07
2022-12-26T03:55:26.144Z,7.90
2022-12-26T03:58:28.825Z,7.77
2022-12-26T04:01:17.101Z,7.57
2022-12-26T04:04:04.234Z,8.03
2022-12-26T04:07:02.359Z,8.30
2022-12-26T04:09:58.456Z,7.77
2022-12-26T04:12:48.218Z,8.47
2022-12-26T04:15:44.503Z,9.20
2022-12-26T04:18:41.319Z,8.50
2022-12-26T04:21:38.978Z,8.83
2022-12-26T04:24:39.887Z,9.43
2022-12-26T04:27:32.201Z,8.97
2022-12-26T04:30:17.768Z,9.10
2022-12-26T04:33:06.938Z,9.07
2022-12-26T04:36:09.712Z,9.23
2022-12-26T04:39:08.789Z,8.83
2022-12-26T04:41:54.974Z,8.97
2022-12-26T04:44:24.608Z,9.83
2022-12-26T04:46:53.667Z,8.87
2022-12-26T04:49:39.312Z,9.47
2022-12-26T04:52:12.018Z,9.93
2022-12-26T04:54:39.581Z,9.77
2022-12-26T04:57:07.433Z,9.00
2022-12-26T04:59:35.002Z,10.03
2022-12-26T05:02:20.450Z,10.17
2022-12-26T05:05:05.758Z,10.03
2022-12-26T05:07:56.343Z,11.20
2022-12-26T05:10:26.138Z,10.97
2022-12-26T05:12:53.874Z,10.43
2022-12-26T05:15:21.724Z,10.63
2022-12-26T05:18:07.644Z,10.07
2022-12-26T05:20:46.584Z,11.23
2022-12-26T05:23:44.262Z,11.30
2022-12-26T05:26:35.788Z,11.10
2022-12-26T05:29:04.071Z,10.87
2022-12-26T05:31:35.923Z,10.33
2022-12-26T05:34:12.949Z,11.20
2022-12-26T05:36:44.248Z,11.10
2022-12-26T05:39:11.211Z,11.33
2022-12-26T05:41:38.878Z,10.97
2022-12-26T05:44:06.273Z,10.73
2022-12-26T05:46:33.656Z,10.87
2022-12-26T05:49:01.127Z,9.90
2022-12-26T05:51:28.061Z,10.60
2022-12-26T05:53:55.103Z,10.37
2022-12-26T05:56:21.971Z,10.13
2022-12-26T05:58:57.986Z,9.83
2022-12-26T06:01:25.495Z,10.27
2022-12-26T06:03:55.680Z,10.10
2022-12-26T06:06:25.095Z,10.07
2022-12-26T06:08:53.794Z,10.47
2022-12-26T06:11:21.263Z,10.53
2022-12-26T06:13:48.207Z,10.67
2022-12-26T06:16:17.254Z,10.47
2022-12-26T06:18:44.735Z,10.57
2022-12-26T06:21:14.399Z,11.57
2022-12-26T06:23:42.816Z,11.93
2022-12-26T06:26:10.553Z,10.47
2022-12-26T06:28:37.523Z,10.70
2022-12-26T06:31:09.392Z,11.77
2022-12-26T06:33:36.885Z,11.80
2022-12-26T06:36:08.952Z,11.37
2022-12-26T06:38:36.605Z,11.50
2022-12-26T06:41:10.410Z,12.07
2022-12-26T06:43:38.420Z,13.07
2022-12-26T06:46:06.913Z,12.07
2022-12-26T06:48:39.621Z,12.43
2022-12-26T06:51:10.153Z,11.40
2022-12-26T06:53:37.347Z,12.07
2022-12-26T06:56:14.446Z,11.37
2022-12-26T06:58:41.599Z,12.67
2022-12-26T07:01:12.059Z,11.70
2022-12-26T07:03:43.300Z,11.73
2022-12-26T07:06:26.340Z,11.83
2022-12-26T07:08:55.413Z,11.43
2022-12-26T07:11:24.918Z,11.17
2022-12-26T07:13:54.816Z,12.23
2022-12-26T07:16:22.446Z,11.57
2022-12-26T07:18:49.413Z,11.80
2022-12-26T07:21:16.419Z,12.37
2022-12-26T07:23:43.737Z,12.63
2022-12-26T07:26:11.006Z,11.70
2022-12-26T07:28:38.118Z,13.27
2022-12-26T07:31:05.705Z,12.53
2022-12-26T07:33:35.682Z,12.70
2022-12-26T07:36:05.172Z,13.57
2022-12-26T07:38:33.691Z,13.57
2022-12-26T07:41:21.285Z,14.73
2022-12-26T07:43:48.082Z,14.77
2022-12-26T07:46:15.211Z,15.03
2022-12-26T07:48:43.792Z,17.13
2022-12-26T07:51:11.075Z,15.57
2022-12-26T07:53:38.325Z,17.37
2022-12-26T07:56:05.399Z,17.83
2022-12-26T07:58:32.219Z,16.77
2022-12-26T08:03:45.132Z,20.73
2022-12-26T08:06:12.469Z,16.80
2022-12-26T08:08:41.099Z,19.00
2022-12-26T08:11:14.800Z,18.07
2022-12-26T08:13:41.861Z,17.27
2022-12-26T08:16:10.748Z,20.67
2022-12-26T08:18:37.710Z,23.53
2022-12-26T08:21:04.676Z,20.50
2022-12-26T08:23:31.674Z,19.60
2022-12-26T08:25:58.626Z,19.73
2022-12-26T08:28:25.986Z,19.50
2022-12-26T08:30:52.993Z,20.03
2022-12-26T08:33:20.389Z,18.70
2022-12-26T08:35:51.207Z,20.90
2022-12-26T08:41:00.259Z,19.10
2022-12-26T08:43:52.836Z,22.53
2022-12-26T08:46:14.400Z,21.87
2022-12-26T08:51:29.030Z,24.07
2022-12-26T08:54:08.171Z,24.37
2022-12-26T08:56:38.393Z,28.50
2022-12-26T08:59:20.371Z,26.33
2022-12-26T09:01:48.009Z,25.07
2022-12-26T09:04:15.579Z,24.70
2022-12-26T09:06:45.367Z,23.47
2022-12-26T09:09:16.783Z,20.20
2022-12-26T09:11:49.664Z,25.20
2022-12-26T09:14:16.369Z,24.40
2022-12-26T09:16:50.331Z,24.90
2022-12-26T09:19:21.446Z,21.43
2022-12-26T09:27:05.127Z,25.23
2022-12-26T09:32:10.761Z,27.57
2022-12-26T09:34:38.934Z,28.67
2022-12-26T09:37:06.097Z,23.57
2022-12-26T09:42:37.504Z,20.87
2022-12-26T09:45:19.054Z,20.80
2022-12-26T09:48:21.581Z,22.93
2022-12-26T09:50:54.896Z,27.77
2022-12-26T09:57:01.683Z,21.53
2022-12-26T09:59:29.746Z,21.13
2022-12-26T10:01:56.765Z,25.10
2022-12-26T10:04:37.218Z,32.60
2022-12-26T10:07:44.829Z,29.83
2022-12-26T10:10:40.746Z,25.80
2022-12-26T10:13:32.951Z,21.73
2022-12-26T10:16:23.284Z,21.47
2022-12-26T10:19:32.531Z,18.77
2022-12-26T10:22:32.572Z,16.97
2022-12-26T10:25:33.623Z,17.97
2022-12-26T10:28:37.498Z,15.57
2022-12-26T10:34:22.201Z,15.07
2022-12-26T10:36:54.519Z,14.23
2022-12-26T10:39:47.803Z,15.00
2022-12-26T10:42:43.842Z,14.67
2022-12-26T10:45:35.434Z,15.40
2022-12-26T10:48:24.193Z,14.20
2022-12-26T10:51:00.732Z,14.97
2022-12-26T10:53:44.930Z,15.90
2022-12-26T10:56:35.160Z,15.40
2022-12-26T10:59:14.264Z,15.87
2022-12-26T11:10:20.358Z,16.70
2022-12-26T11:13:00.799Z,15.93
2022-12-26T11:15:48.692Z,15.73
2022-12-26T11:18:47.476Z,15.60
2022-12-26T11:21:41.870Z,15.23
2022-12-26T11:24:24.997Z,15.10
2022-12-26T11:27:39.538Z,14.30
2022-12-26T11:30:39.529Z,14.43
2022-12-26T11:33:15.398Z,14.33
2022-12-26T11:36:12.129Z,14.77
2022-12-26T11:38:59.338Z,14.50
2022-12-26T11:42:02.453Z,14.13
2022-12-26T11:44:41.408Z,15.07
2022-12-26T11:47:15.261Z,15.17
2022-12-26T11:49:54.850Z,15.23
2022-12-26T11:52:40.338Z,14.43
2022-12-26T11:55:22.693Z,13.20
2022-12-26T11:58:11.676Z,14.60
2022-12-26T12:00:41.379Z,14.13
2022-12-26T12:03:18.813Z,13.80
2022-12-26T12:06:13.508Z,12.93
2022-12-26T12:08:59.632Z,13.40
2022-12-26T12:11:55.330Z,14.03
2022-12-26T12:14:57.643Z,11.73
2022-12-26T12:18:03.379Z,11.83
2022-12-26T12:20:38.073Z,10.63
2022-12-26T12:23:04.932Z,11.53
2022-12-26T12:25:54.287Z,11.23
2022-12-26T12:28:40.629Z,10.83
2022-12-26T12:31:27.523Z,10.33
2022-12-26T12:34:14.618Z,10.37
2022-12-26T12:36:56.147Z,10.57
2022-12-26T12:39:44.461Z,9.27
2022-12-26T12:42:29.321Z,8.33
2022-12-26T12:45:27.346Z,8.53
2022-12-26T12:48:32.200Z,8.30
2022-12-26T12:51:23.052Z,6.10
2022-12-26T12:53:49.785Z,5.90
2022-12-26T12:56:49.523Z,5.70
2022-12-26T12:59:31.361Z,5.40
2022-12-26T13:02:13.920Z,3.73
2022-12-26T13:04:48.211Z,3.07
2022-12-26T13:07:29.397Z,2.50
2022-12-26T13:10:00.699Z,1.80
2022-12-26T13:12:36.392Z,1.40
2022-12-26T13:15:09.367Z,1.53
2022-12-26T13:18:13.462Z,1.47
2022-12-26T13:20:48.999Z,1.77
2022-12-26T13:24:07.256Z,1.33
2022-12-26T13:26:50.494Z,1.37
2022-12-26T13:29:32.309Z,1.27
2022-12-26T13:32:00.614Z,1.50
2022-12-26T13:34:28.486Z,1.50
2022-12-26T13:36:57.176Z,1.07
2022-12-26T13:39:23.935Z,1.50
2022-12-26T13:42:16.852Z,1.50
2022-12-26T13:44:46.552Z,1.40
2022-12-26T13:47:44.883Z,1.80
2022-12-26T13:50:49.974Z,1.83
2022-12-26T13:53:26.235Z,1.53
2022-12-26T13:55:54.307Z,2.27
2022-12-26T13:58:31.956Z,1.70
2022-12-26T14:01:23.276Z,1.80
2022-12-26T14:04:22.375Z,1.80
2022-12-26T14:07:26.819Z,2.03
2022-12-26T14:10:37.576Z,1.60
2022-12-26T14:13:24.533Z,1.73
2022-12-26T14:15:57.251Z,1.70
2022-12-26T14:18:30.308Z,1.70
2022-12-26T14:21:22.203Z,1.60
2022-12-26T14:23:56.388Z,1.70
2022-12-26T14:26:39.992Z,2.33
2022-12-26T14:29:15.384Z,1.90
2022-12-26T14:32:06.780Z,2.10
2022-12-26T14:34:49.823Z,2.33
2022-12-26T14:37:48.686Z,2.30
2022-12-26T14:40:34.930Z,2.43
2022-12-26T14:43:10.697Z,2.67
2022-12-26T14:45:42.906Z,2.83
2022-12-26T14:48:29.895Z,2.80
2022-12-26T14:51:16.615Z,2.67
2022-12-26T14:53:46.244Z,2.37
2022-12-26T14:56:19.052Z,1.80
2022-12-26T14:58:47.742Z,2.03
2022-12-26T15:01:18.253Z,1.73
2022-12-26T15:04:17.089Z,2.10
2022-12-26T15:06:49.911Z,2.40
2022-12-26T15:10:07.791Z,2.40
2022-12-26T15:13:05.423Z,2.33
2022-12-26T15:15:52.034Z,2.63
2022-12-26T15:19:01.500Z,2.57
2022-12-26T15:22:00.062Z,2.40
2022-12-26T15:25:20.028Z,2.50
2022-12-26T15:28:27.003Z,2.60
2022-12-26T15:31:11.960Z,3.33
2022-12-26T15:34:27.031Z,3.03
2022-12-26T15:37:08.345Z,3.23
2022-12-26T15:39:46.853Z,2.83
2022-12-26T15:42:43.774Z,2.80
2022-12-26T15:45:43.924Z,2.90
2022-12-26T15:48:25.442Z,3.13
2022-12-26T15:51:05.205Z,3.20
2022-12-26T15:54:08.893Z,3.00
2022-12-26T15:57:07.357Z,3.37
2022-12-26T16:00:10.137Z,2.43
2022-12-26T16:03:15.712Z,3.03
2022-12-26T16:05:51.068Z,3.00
2022-12-26T16:08:17.750Z,2.90
2022-12-26T16:10:49.989Z,3.10
2022-12-26T16:13:25.364Z,3.00
2022-12-26T16:15:56.906Z,2.50
2022-12-26T16:18:27.582Z,3.10
2022-12-26T16:21:18.260Z,2.80
2022-12-26T16:23:47.141Z,3.43
2022-12-26T16:26:26.488Z,3.07
2022-12-26T16:28:54.614Z,3.97
2022-12-26T16:31:25.107Z,3.50
2022-12-26T16:33:53.710Z,3.50
2022-12-26T16:36:23.487Z,3.63
2022-12-26T16:38:54.139Z,4.00
2022-12-26T16:41:23.993Z,3.90
2022-12-26T16:43:52.452Z,3.40
2022-12-26T16:46:22.720Z,3.83
2022-12-26T16:48:56.192Z,3.70
2022-12-26T16:51:43.940Z,3.33
2022-12-26T16:54:22.395Z,3.37
2022-12-26T16:56:58.483Z,3.40
2022-12-26T16:59:31.230Z,3.20
2022-12-26T17:02:00.491Z,3.10
2022-12-26T17:04:29.200Z,3.10
2022-12-26T17:07:08.371Z,3.33
2022-12-26T17:09:49.864Z,3.03
2022-12-26T17:12:27.747Z,3.00
2022-12-26T17:14:56.987Z,3.20
2022-12-26T17:17:23.837Z,3.50
2022-12-26T17:19:58.880Z,3.40
2022-12-26T17:28:08.346Z,3.00
2022-12-26T17:30:37.703Z,3.80
2022-12-26T17:33:17.124Z,3.37
2022-12-26T17:36:38.600Z,3.53
2022-12-26T17:38:36.555Z,2.97
2022-12-26T17:41:05.644Z,3.00
2022-12-26T17:43:33.878Z,2.63
2022-12-26T17:46:01.676Z,3.70
2022-12-26T17:48:29.866Z,3.80
2022-12-26T17:51:00.841Z,2.93
2022-12-26T17:53:38.307Z,3.60
2022-12-26T17:56:15.388Z,3.27
2022-12-26T17:58:43.104Z,3.73
2022-12-26T18:01:18.977Z,2.97
2022-12-26T18:03:49.745Z,3.53
2022-12-26T18:06:17.534Z,3.57
2022-12-26T18:08:46.250Z,3.13
2022-12-26T18:11:15.937Z,3.70
2022-12-26T18:13:49.443Z,3.63
2022-12-26T18:16:25.451Z,4.23
2022-12-26T18:19:02.183Z,4.20
2022-12-26T18:21:30.009Z,5.40
